Kezdőlap
METAR-TAF:

METAR-TAF

Repülőterek :

Atlantic, Iowa, Amerikai Egyesült Államok

földrajzi szélesség: 41-24N, földrajzi hosszúság: 095-03W, magasság: 360 m

Jelenlegi meteorológiai megfigyelések

A jelentés 26 perccel ezelõtt készült, 17:15 UTC
Dél-délkeleti szél 7 kt
Hőmérséklet 28°C
Páratartalom 58%
Légköri nyomás 1012 hPa
Látótávolság: 16.1 km
Derült ég

METAR: KAIO 181715Z AUTO 16007KT 10SM CLR 28/19 A2988 RMK AO2

Idő: 12:41 (17:41 UTC)


TAF: hiányzik

Meteorológiai megfigyelések és előrejelzések több, mint 4000 repülőtéren (METAR és TAF jelentéseket).

A térképen piros és sárga pontok jelzik az elérhető meteorológiai állomásokat.

Mozgassa az egeret a pont fölött, hogy megjelenjen az állomás neve.

Azután kattintson az időjárási megfigyelések és előrejelzések megtekintéséhez.

A térkép megváltoztatása: kattintson a fekete keresztel jelölt zöld gombra ráközelítéshez, a vonallal jelölt zöld gombra távolításhoz, vagy a zöld nyilakra a szomszédos térképek eléréséhez.


METAR-TAF: